sensor_id;sensor_type;location;lat;lon;timestamp;P1;durP1;ratioP1;P2;durP2;ratioP2
50651;SDS011;66928;52.086;5.240;2023-04-25T05:11:02;10.1;;;3.3;;
50651;SDS011;66928;52.086;5.240;2023-04-25T05:12:38;8.0;;;3.1;;
50651;SDS011;66928;52.086;5.240;2023-04-25T05:15:50;7.5;;;3.1;;
50651;SDS011;66928;52.086;5.240;2023-04-25T05:17:26;7.3;;;3.0;;
50651;SDS011;66928;52.086;5.240;2023-04-25T05:19:03;7.9;;;2.9;;
50651;SDS011;66928;52.086;5.240;2023-04-25T05:20:39;6.4;;;2.7;;
50651;SDS011;66928;52.086;5.240;2023-04-25T05:23:51;9.6;;;3.3;;
50651;SDS011;66928;52.086;5.240;2023-04-25T05:25:27;11.7;;;3.1;;
50651;SDS011;66928;52.086;5.240;2023-04-25T05:27:03;9.21;;;3.2;;
50651;SDS011;66928;52.086;5.240;2023-04-25T05:30:15;8.0;;;2.9;;
50651;SDS011;66928;52.086;5.240;2023-04-25T05:31:52;8.9;;;2.8;;
50651;SDS011;66928;52.086;5.240;2023-04-25T05:33:28;8.81;;;3.0;;
50651;SDS011;66928;52.086;5.240;2023-04-25T05:36:41;8.9;;;2.7;;
50651;SDS011;66928;52.086;5.240;2023-04-25T05:38:17;9.0;;;2.5;;
50651;SDS011;66928;52.086;5.240;2023-04-25T05:39:53;5.5;;;2.5;;
50651;SDS011;66928;52.086;5.240;2023-04-25T05:41:29;7.0;;;2.7;;
50651;SDS011;66928;52.086;5.240;2023-04-25T05:44:42;6.3;;;2.8;;
50651;SDS011;66928;52.086;5.240;2023-04-25T05:46:18;9.5;;;2.8;;
50651;SDS011;66928;52.086;5.240;2023-04-25T05:47:54;7.1;;;2.6;;
50651;SDS011;66928;52.086;5.240;2023-04-25T05:51:06;6.4;;;2.4;;
50651;SDS011;66928;52.086;5.240;2023-04-25T05:52:43;6.6;;;2.8;;
50651;SDS011;66928;52.086;5.240;2023-04-25T05:54:20;9.0;;;2.7;;
50651;SDS011;66928;52.086;5.240;2023-04-25T05:57:31;8.81;;;2.8;;
50651;SDS011;66928;52.086;5.240;2023-04-25T05:59:07;7.4;;;2.7;;
50651;SDS011;66928;52.086;5.240;2023-04-25T06:00:43;7.4;;;2.6;;
50651;SDS011;66928;52.086;5.240;2023-04-25T06:03:57;7.9;;;2.7;;
50651;SDS011;66928;52.086;5.240;2023-04-25T06:05:33;7.2;;;2.5;;
50651;SDS011;66928;52.086;5.240;2023-04-25T06:07:09;8.2;;;2.6;;
50651;SDS011;66928;52.086;5.240;2023-04-25T06:08:45;7.6;;;2.5;;
50651;SDS011;66928;52.086;5.240;2023-04-25T06:11:57;11.5;;;3.1;;
50651;SDS011;66928;52.086;5.240;2023-04-25T06:13:33;7.4;;;2.8;;
50651;SDS011;66928;52.086;5.240;2023-04-25T06:15:10;10.4;;;3.0;;
50651;SDS011;66928;52.086;5.240;2023-04-25T06:18:22;10.8;;;3.0;;
50651;SDS011;66928;52.086;5.240;2023-04-25T06:19:58;8.81;;;2.9;;
50651;SDS011;66928;52.086;5.240;2023-04-25T06:21:34;9.81;;;3.1;;
50651;SDS011;66928;52.086;5.240;2023-04-25T06:24:47;9.0;;;2.8;;
50651;SDS011;66928;52.086;5.240;2023-04-25T06:26:23;9.31;;;2.9;;
50651;SDS011;66928;52.086;5.240;2023-04-25T06:28:00;8.9;;;2.6;;
50651;SDS011;66928;52.086;5.240;2023-04-25T06:29:36;8.31;;;3.0;;
50651;SDS011;66928;52.086;5.240;2023-04-25T06:32:48;9.4;;;2.7;;
50651;SDS011;66928;52.086;5.240;2023-04-25T06:34:24;8.6;;;2.8;;
50651;SDS011;66928;52.086;5.240;2023-04-25T06:36:00;10.21;;;2.9;;
50651;SDS011;66928;52.086;5.240;2023-04-25T06:39:12;7.0;;;2.7;;
50651;SDS011;66928;52.086;5.240;2023-04-25T06:40:49;11.8;;;3.2;;
50651;SDS011;66928;52.086;5.240;2023-04-25T06:42:25;11.8;;;3.2;;
50651;SDS011;66928;52.086;5.240;2023-04-25T06:45:37;7.8;;;2.8;;
50651;SDS011;66928;52.086;5.240;2023-04-25T06:47:13;12.0;;;2.9;;
50651;SDS011;66928;52.086;5.240;2023-04-25T06:48:51;9.4;;;2.9;;
50651;SDS011;66928;52.086;5.240;2023-04-25T06:52:03;11.2;;;3.3;;
50651;SDS011;66928;52.086;5.240;2023-04-25T06:53:39;9.1;;;3.4;;
50651;SDS011;66928;52.086;5.240;2023-04-25T06:55:16;11.2;;;3.1;;
50651;SDS011;66928;52.086;5.240;2023-04-25T06:56:52;10.1;;;2.8;;
50651;SDS011;66928;52.086;5.240;2023-04-25T07:00:06;8.5;;;2.9;;
50651;SDS011;66928;52.086;5.240;2023-04-25T07:01:44;12.2;;;3.2;;
50651;SDS011;66928;52.086;5.240;2023-04-25T07:03:20;11.2;;;2.9;;
50651;SDS011;66928;52.086;5.240;2023-04-25T07:06:33;9.1;;;2.7;;
50651;SDS011;66928;52.086;5.240;2023-04-25T07:08:09;8.81;;;3.0;;
50651;SDS011;66928;52.086;5.240;2023-04-25T07:09:45;8.71;;;2.8;;
50651;SDS011;66928;52.086;5.240;2023-04-25T07:12:57;11.9;;;3.3;;
50651;SDS011;66928;52.086;5.240;2023-04-25T07:14:33;8.71;;;2.8;;
50651;SDS011;66928;52.086;5.240;2023-04-25T07:16:10;8.4;;;2.9;;
50651;SDS011;66928;52.086;5.240;2023-04-25T07:17:46;10.8;;;3.1;;
50651;SDS011;66928;52.086;5.240;2023-04-25T07:20:58;10.9;;;3.1;;
50651;SDS011;66928;52.086;5.240;2023-04-25T07:22:34;9.0;;;3.1;;
50651;SDS011;66928;52.086;5.240;2023-04-25T07:24:10;9.71;;;3.0;;
50651;SDS011;66928;52.086;5.240;2023-04-25T07:27:22;11.9;;;3.3;;
50651;SDS011;66928;52.086;5.240;2023-04-25T07:28:58;9.4;;;3.0;;
50651;SDS011;66928;52.086;5.240;2023-04-25T07:30:35;10.7;;;3.1;;
50651;SDS011;66928;52.086;5.240;2023-04-25T07:33:47;12.3;;;2.9;;
50651;SDS011;66928;52.086;5.240;2023-04-25T07:35:23;8.6;;;2.9;;
50651;SDS011;66928;52.086;5.240;2023-04-25T07:36:59;9.31;;;3.0;;
50651;SDS011;66928;52.086;5.240;2023-04-25T07:40:12;10.0;;;3.0;;
50651;SDS011;66928;52.086;5.240;2023-04-25T07:41:49;9.81;;;2.7;;
50651;SDS011;66928;52.086;5.240;2023-04-25T07:43:25;10.4;;;2.9;;
50651;SDS011;66928;52.086;5.240;2023-04-25T07:45:01;10.3;;;2.9;;
50651;SDS011;66928;52.086;5.240;2023-04-25T07:48:16;10.21;;;2.8;;
50651;SDS011;66928;52.086;5.240;2023-04-25T07:49:53;11.3;;;2.9;;
50651;SDS011;66928;52.086;5.240;2023-04-25T07:51:29;8.2;;;2.6;;
50651;SDS011;66928;52.086;5.240;2023-04-25T07:54:41;8.4;;;2.6;;
50651;SDS011;66928;52.086;5.240;2023-04-25T07:56:18;8.71;;;2.4;;
50651;SDS011;66928;52.086;5.240;2023-04-25T07:57:54;9.6;;;2.7;;
50651;SDS011;66928;52.086;5.240;2023-04-25T08:01:06;9.5;;;2.5;;
50651;SDS011;66928;52.086;5.240;2023-04-25T08:02:42;8.6;;;2.4;;
50651;SDS011;66928;52.086;5.240;2023-04-25T08:04:18;7.3;;;2.31;;
50651;SDS011;66928;52.086;5.240;2023-04-25T08:05:54;6.7;;;2.6;;
50651;SDS011;66928;52.086;5.240;2023-04-25T08:09:07;9.81;;;2.5;;
50651;SDS011;66928;52.086;5.240;2023-04-25T08:10:43;9.4;;;2.8;;
50651;SDS011;66928;52.086;5.240;2023-04-25T08:12:19;7.4;;;2.21;;
50651;SDS011;66928;52.086;5.240;2023-04-25T08:15:31;7.5;;;2.6;;
50651;SDS011;66928;52.086;5.240;2023-04-25T08:17:07;7.8;;;2.5;;
50651;SDS011;66928;52.086;5.240;2023-04-25T08:18:44;9.0;;;2.8;;
50651;SDS011;66928;52.086;5.240;2023-04-25T08:21:57;6.8;;;2.31;;
50651;SDS011;66928;52.086;5.240;2023-04-25T08:23:33;6.6;;;2.4;;
50651;SDS011;66928;52.086;5.240;2023-04-25T08:25:09;8.4;;;2.5;;
50651;SDS011;66928;52.086;5.240;2023-04-25T08:26:45;7.4;;;2.31;;
50651;SDS011;66928;52.086;5.240;2023-04-25T08:29:57;7.7;;;2.31;;
50651;SDS011;66928;52.086;5.240;2023-04-25T08:31:33;7.5;;;2.4;;
50651;SDS011;66928;52.086;5.240;2023-04-25T08:33:10;10.5;;;2.6;;
50651;SDS011;66928;52.086;5.240;2023-04-25T08:36:22;8.4;;;2.6;;
50651;SDS011;66928;52.086;5.240;2023-04-25T08:37:58;8.81;;;2.7;;
50651;SDS011;66928;52.086;5.240;2023-04-25T08:39:34;8.31;;;2.5;;
50651;SDS011;66928;52.086;5.240;2023-04-25T08:42:47;7.3;;;2.31;;
50651;SDS011;66928;52.086;5.240;2023-04-25T08:44:25;5.6;;;2.31;;
50651;SDS011;66928;52.086;5.240;2023-04-25T08:46:02;8.4;;;2.31;;
50651;SDS011;66928;52.086;5.240;2023-04-25T08:49:15;7.5;;;2.21;;
50651;SDS011;66928;52.086;5.240;2023-04-25T08:50:54;6.2;;;2.21;;
50651;SDS011;66928;52.086;5.240;2023-04-25T08:52:35;6.1;;;2.0;;
50651;SDS011;66928;52.086;5.240;2023-04-25T08:54:13;7.5;;;2.4;;
50651;SDS011;66928;52.086;5.240;2023-04-25T08:57:29;5.2;;;2.1;;
50651;SDS011;66928;52.086;5.240;2023-04-25T08:59:07;4.3;;;1.8;;
50651;SDS011;66928;52.086;5.240;2023-04-25T09:00:43;7.0;;;2.0;;
50651;SDS011;66928;52.086;5.240;2023-04-25T09:02:21;6.3;;;2.0;;
50651;SDS011;66928;52.086;5.240;2023-04-25T09:05:33;6.4;;;2.1;;
50651;SDS011;66928;52.086;5.240;2023-04-25T09:07:10;6.6;;;2.0;;
50651;SDS011;66928;52.086;5.240;2023-04-25T09:08:49;6.4;;;2.0;;
50651;SDS011;66928;52.086;5.240;2023-04-25T09:12:03;6.4;;;1.9;;
50651;SDS011;66928;52.086;5.240;2023-04-25T09:13:40;5.11;;;1.7;;
50651;SDS011;66928;52.086;5.240;2023-04-25T09:15:16;6.9;;;2.0;;
50651;SDS011;66928;52.086;5.240;2023-04-25T09:18:37;5.2;;;2.1;;
50651;SDS011;66928;52.086;5.240;2023-04-25T09:20:13;3.9;;;1.7;;
50651;SDS011;66928;52.086;5.240;2023-04-25T09:21:50;5.7;;;1.7;;
50651;SDS011;66928;52.086;5.240;2023-04-25T09:23:26;5.7;;;1.7;;
50651;SDS011;66928;52.086;5.240;2023-04-25T09:26:44;4.2;;;1.7;;
50651;SDS011;66928;52.086;5.240;2023-04-25T09:28:23;6.3;;;1.9;;
50651;SDS011;66928;52.086;5.240;2023-04-25T09:30:00;5.7;;;1.8;;
50651;SDS011;66928;52.086;5.240;2023-04-25T09:31:36;5.11;;;1.8;;
50651;SDS011;66928;52.086;5.240;2023-04-25T09:34:50;3.8;;;1.7;;
50651;SDS011;66928;52.086;5.240;2023-04-25T09:36:29;5.9;;;1.7;;
50651;SDS011;66928;52.086;5.240;2023-04-25T09:38:07;5.5;;;1.8;;
50651;SDS011;66928;52.086;5.240;2023-04-25T09:41:22;5.0;;;1.6;;
50651;SDS011;66928;52.086;5.240;2023-04-25T09:42:59;6.4;;;1.9;;
50651;SDS011;66928;52.086;5.240;2023-04-25T09:44:36;6.5;;;2.31;;
50651;SDS011;66928;52.086;5.240;2023-04-25T09:46:12;5.2;;;2.0;;
50651;SDS011;66928;52.086;5.240;2023-04-25T09:49:25;5.7;;;2.0;;
50651;SDS011;66928;52.086;5.240;2023-04-25T09:51:05;8.0;;;2.21;;
50651;SDS011;66928;52.086;5.240;2023-04-25T09:52:42;6.9;;;2.0;;
50651;SDS011;66928;52.086;5.240;2023-04-25T09:55:55;5.2;;;2.1;;
50651;SDS011;66928;52.086;5.240;2023-04-25T09:57:32;5.8;;;2.1;;
50651;SDS011;66928;52.086;5.240;2023-04-25T09:59:08;6.2;;;2.31;;
50651;SDS011;66928;52.086;5.240;2023-04-25T10:02:24;7.4;;;2.31;;
50651;SDS011;66928;52.086;5.240;2023-04-25T10:04:03;6.5;;;2.0;;
50651;SDS011;66928;52.086;5.240;2023-04-25T10:05:42;7.1;;;2.1;;
50651;SDS011;66928;52.086;5.240;2023-04-25T10:07:19;5.6;;;2.0;;
50651;SDS011;66928;52.086;5.240;2023-04-25T10:10:34;4.3;;;1.9;;
50651;SDS011;66928;52.086;5.240;2023-04-25T10:12:12;5.11;;;2.1;;
50651;SDS011;66928;52.086;5.240;2023-04-25T10:13:48;6.1;;;2.21;;
50651;SDS011;66928;52.086;5.240;2023-04-25T10:17:03;6.9;;;2.0;;
50651;SDS011;66928;52.086;5.240;2023-04-25T10:18:39;7.0;;;1.9;;
50651;SDS011;66928;52.086;5.240;2023-04-25T10:20:15;6.2;;;2.31;;
50651;SDS011;66928;52.086;5.240;2023-04-25T10:21:52;5.2;;;2.1;;
50651;SDS011;66928;52.086;5.240;2023-04-25T10:25:11;5.5;;;2.1;;
50651;SDS011;66928;52.086;5.240;2023-04-25T10:26:49;7.0;;;2.21;;
50651;SDS011;66928;52.086;5.240;2023-04-25T10:28:26;8.0;;;2.1;;
50651;SDS011;66928;52.086;5.240;2023-04-25T10:31:44;4.7;;;2.1;;
50651;SDS011;66928;52.086;5.240;2023-04-25T10:33:28;8.0;;;2.4;;
50651;SDS011;66928;52.086;5.240;2023-04-25T10:35:11;5.6;;;2.21;;
50651;SDS011;66928;52.086;5.240;2023-04-25T10:36:50;7.2;;;2.0;;
50651;SDS011;66928;52.086;5.240;2023-04-25T10:40:08;5.5;;;2.0;;
50651;SDS011;66928;52.086;5.240;2023-04-25T10:41:45;5.2;;;2.0;;
50651;SDS011;66928;52.086;5.240;2023-04-25T10:43:37;4.8;;;2.1;;
50651;SDS011;66928;52.086;5.240;2023-04-25T10:45:15;4.7;;;1.8;;
50651;SDS011;66928;52.086;5.240;2023-04-25T10:48:27;4.61;;;2.1;;
50651;SDS011;66928;52.086;5.240;2023-04-25T10:50:05;5.3;;;2.21;;
50651;SDS011;66928;52.086;5.240;2023-04-25T10:51:43;5.4;;;2.0;;
50651;SDS011;66928;52.086;5.240;2023-04-25T10:53:19;5.6;;;2.21;;
50651;SDS011;66928;52.086;5.240;2023-04-25T10:56:40;5.3;;;1.9;;
50651;SDS011;66928;52.086;5.240;2023-04-25T10:58:20;5.11;;;1.7;;
50651;SDS011;66928;52.086;5.240;2023-04-25T11:00:00;2.6;;;1.7;;
50651;SDS011;66928;52.086;5.240;2023-04-25T11:01:41;4.91;;;1.8;;
50651;SDS011;66928;52.086;5.240;2023-04-25T11:04:58;4.91;;;1.8;;
50651;SDS011;66928;52.086;5.240;2023-04-25T11:06:43;4.5;;;2.1;;
50651;SDS011;66928;52.086;5.240;2023-04-25T11:08:36;5.2;;;1.8;;
50651;SDS011;66928;52.086;5.240;2023-04-25T11:10:26;3.7;;;1.7;;
50651;SDS011;66928;52.086;5.240;2023-04-25T11:12:03;5.6;;;2.1;;
50651;SDS011;66928;52.086;5.240;2023-04-25T11:15:16;6.5;;;1.9;;
50651;SDS011;66928;52.086;5.240;2023-04-25T11:16:52;5.0;;;1.8;;
50651;SDS011;66928;52.086;5.240;2023-04-25T11:18:29;5.6;;;2.1;;
50651;SDS011;66928;52.086;5.240;2023-04-25T11:21:43;5.0;;;2.1;;
50651;SDS011;66928;52.086;5.240;2023-04-25T11:23:19;4.1;;;1.7;;
50651;SDS011;66928;52.086;5.240;2023-04-25T11:28:07;5.4;;;1.6;;
50651;SDS011;66928;52.086;5.240;2023-04-25T11:29:43;4.1;;;1.7;;
50651;SDS011;66928;52.086;5.240;2023-04-25T11:31:20;6.3;;;1.9;;
50651;SDS011;66928;52.086;5.240;2023-04-25T11:32:57;4.1;;;1.7;;
50651;SDS011;66928;52.086;5.240;2023-04-25T11:36:10;6.0;;;1.8;;
50651;SDS011;66928;52.086;5.240;2023-04-25T11:37:46;6.1;;;2.0;;
50651;SDS011;66928;52.086;5.240;2023-04-25T11:39:23;5.7;;;1.9;;
50651;SDS011;66928;52.086;5.240;2023-04-25T11:42:37;5.4;;;1.9;;
50651;SDS011;66928;52.086;5.240;2023-04-25T11:44:15;3.2;;;1.5;;
50651;SDS011;66928;52.086;5.240;2023-04-25T11:45:53;5.4;;;1.9;;
50651;SDS011;66928;52.086;5.240;2023-04-25T11:49:05;6.8;;;2.1;;
50651;SDS011;66928;52.086;5.240;2023-04-25T11:50:41;3.7;;;1.6;;
50651;SDS011;66928;52.086;5.240;2023-04-25T11:52:17;4.41;;;1.8;;
50651;SDS011;66928;52.086;5.240;2023-04-25T11:53:53;5.7;;;1.8;;
50651;SDS011;66928;52.086;5.240;2023-04-25T11:57:06;7.4;;;2.0;;
50651;SDS011;66928;52.086;5.240;2023-04-25T11:58:57;7.4;;;2.0;;
50651;SDS011;66928;52.086;5.240;2023-04-25T12:00:37;5.5;;;1.9;;
50651;SDS011;66928;52.086;5.240;2023-04-25T12:02:24;6.2;;;2.1;;
50651;SDS011;66928;52.086;5.240;2023-04-25T12:05:54;5.0;;;1.9;;
50651;SDS011;66928;52.086;5.240;2023-04-25T12:07:38;5.3;;;2.1;;
50651;SDS011;66928;52.086;5.240;2023-04-25T12:09:16;5.5;;;1.7;;
50651;SDS011;66928;52.086;5.240;2023-04-25T12:10:55;3.0;;;1.6;;
50651;SDS011;66928;52.086;5.240;2023-04-25T12:14:08;5.11;;;1.7;;
50651;SDS011;66928;52.086;5.240;2023-04-25T12:15:44;4.91;;;1.7;;
50651;SDS011;66928;52.086;5.240;2023-04-25T12:17:20;2.9;;;1.3;;
50651;SDS011;66928;52.086;5.240;2023-04-25T12:18:58;3.6;;;1.4;;
50651;SDS011;66928;52.086;5.240;2023-04-25T12:22:18;3.7;;;1.5;;
50651;SDS011;66928;52.086;5.240;2023-04-25T12:23:56;4.5;;;1.5;;
50651;SDS011;66928;52.086;5.240;2023-04-25T12:25:33;3.5;;;1.6;;
50651;SDS011;66928;52.086;5.240;2023-04-25T12:28:51;3.8;;;1.6;;
50651;SDS011;66928;52.086;5.240;2023-04-25T12:30:27;4.41;;;1.5;;
50651;SDS011;66928;52.086;5.240;2023-04-25T12:32:03;3.4;;;1.5;;
50651;SDS011;66928;52.086;5.240;2023-04-25T12:33:39;4.3;;;1.6;;
50651;SDS011;66928;52.086;5.240;2023-04-25T12:36:52;5.4;;;1.8;;
50651;SDS011;66928;52.086;5.240;2023-04-25T12:38:29;5.11;;;1.9;;
50651;SDS011;66928;52.086;5.240;2023-04-25T12:40:07;6.2;;;2.0;;
50651;SDS011;66928;52.086;5.240;2023-04-25T12:43:21;5.8;;;2.0;;
50651;SDS011;66928;52.086;5.240;2023-04-25T12:44:57;3.7;;;1.9;;
50651;SDS011;66928;52.086;5.240;2023-04-25T12:46:33;3.3;;;1.7;;
50651;SDS011;66928;52.086;5.240;2023-04-25T12:49:46;4.91;;;1.8;;
50651;SDS011;66928;52.086;5.240;2023-04-25T12:51:22;5.3;;;1.8;;
50651;SDS011;66928;52.086;5.240;2023-04-25T12:52:58;5.11;;;2.0;;
50651;SDS011;66928;52.086;5.240;2023-04-25T12:54:34;6.2;;;1.9;;
50651;SDS011;66928;52.086;5.240;2023-04-25T12:57:46;5.7;;;2.0;;
50651;SDS011;66928;52.086;5.240;2023-04-25T12:59:22;4.2;;;2.31;;
50651;SDS011;66928;52.086;5.240;2023-04-25T13:00:59;4.41;;;1.8;;
50651;SDS011;66928;52.086;5.240;2023-04-25T13:04:11;3.0;;;1.9;;
50651;SDS011;66928;52.086;5.240;2023-04-25T13:05:47;4.7;;;2.1;;
50651;SDS011;66928;52.086;5.240;2023-04-25T13:07:24;4.2;;;1.7;;
50651;SDS011;66928;52.086;5.240;2023-04-25T13:10:36;5.4;;;1.9;;
50651;SDS011;66928;52.086;5.240;2023-04-25T13:12:13;3.6;;;1.6;;
50651;SDS011;66928;52.086;5.240;2023-04-25T13:13:49;5.2;;;1.7;;
50651;SDS011;66928;52.086;5.240;2023-04-25T13:15:25;3.9;;;1.7;;
50651;SDS011;66928;52.086;5.240;2023-04-25T13:18:38;6.6;;;2.0;;
50651;SDS011;66928;52.086;5.240;2023-04-25T13:20:14;7.9;;;2.31;;
50651;SDS011;66928;52.086;5.240;2023-04-25T13:21:51;4.3;;;1.9;;
50651;SDS011;66928;52.086;5.240;2023-04-25T13:25:06;4.7;;;1.7;;
50651;SDS011;66928;52.086;5.240;2023-04-25T13:26:43;4.41;;;1.6;;
50651;SDS011;66928;52.086;5.240;2023-04-25T13:28:19;4.0;;;1.7;;
50651;SDS011;66928;52.086;5.240;2023-04-25T13:31:31;4.1;;;1.7;;
50651;SDS011;66928;52.086;5.240;2023-04-25T13:33:07;3.4;;;1.5;;
50651;SDS011;66928;52.086;5.240;2023-04-25T13:34:44;4.2;;;1.6;;
50651;SDS011;66928;52.086;5.240;2023-04-25T13:36:20;4.61;;;1.8;;
50651;SDS011;66928;52.086;5.240;2023-04-25T13:39:32;3.6;;;1.7;;
50651;SDS011;66928;52.086;5.240;2023-04-25T13:41:08;3.6;;;1.7;;
50651;SDS011;66928;52.086;5.240;2023-04-25T13:42:44;3.7;;;1.6;;
50651;SDS011;66928;52.086;5.240;2023-04-25T13:45:57;5.0;;;1.9;;
50651;SDS011;66928;52.086;5.240;2023-04-25T13:47:33;4.8;;;1.8;;
50651;SDS011;66928;52.086;5.240;2023-04-25T13:49:10;5.0;;;1.6;;
50651;SDS011;66928;52.086;5.240;2023-04-25T13:52:22;7.1;;;2.21;;
50651;SDS011;66928;52.086;5.240;2023-04-25T13:53:58;6.5;;;2.1;;
50651;SDS011;66928;52.086;5.240;2023-04-25T13:55:34;7.2;;;2.21;;
50651;SDS011;66928;52.086;5.240;2023-04-25T13:58:48;7.1;;;2.1;;
50651;SDS011;66928;52.086;5.240;2023-04-25T14:00:24;5.0;;;2.1;;
50651;SDS011;66928;52.086;5.240;2023-04-25T14:02:00;3.9;;;2.0;;
50651;SDS011;66928;52.086;5.240;2023-04-25T14:03:36;5.5;;;1.8;;
50651;SDS011;66928;52.086;5.240;2023-04-25T14:06:48;4.1;;;1.8;;
50651;SDS011;66928;52.086;5.240;2023-04-25T14:08:25;3.6;;;2.0;;
50651;SDS011;66928;52.086;5.240;2023-04-25T14:10:02;6.6;;;2.21;;
50651;SDS011;66928;52.086;5.240;2023-04-25T14:13:15;4.41;;;1.8;;
50651;SDS011;66928;52.086;5.240;2023-04-25T14:14:51;6.5;;;2.21;;
50651;SDS011;66928;52.086;5.240;2023-04-25T14:16:27;5.0;;;1.9;;
50651;SDS011;66928;52.086;5.240;2023-04-25T14:19:39;5.5;;;2.0;;
50651;SDS011;66928;52.086;5.240;2023-04-25T14:21:15;6.9;;;2.31;;
50651;SDS011;66928;52.086;5.240;2023-04-25T14:22:52;4.8;;;2.1;;
50651;SDS011;66928;52.086;5.240;2023-04-25T14:24:28;7.3;;;2.1;;
50651;SDS011;66928;52.086;5.240;2023-04-25T14:27:40;6.5;;;2.4;;
50651;SDS011;66928;52.086;5.240;2023-04-25T14:29:17;6.0;;;2.0;;
50651;SDS011;66928;52.086;5.240;2023-04-25T14:30:53;4.61;;;2.1;;
50651;SDS011;66928;52.086;5.240;2023-04-25T14:34:05;4.7;;;1.8;;
50651;SDS011;66928;52.086;5.240;2023-04-25T14:35:43;5.2;;;2.1;;
50651;SDS011;66928;52.086;5.240;2023-04-25T14:37:19;5.2;;;2.31;;
50651;SDS011;66928;52.086;5.240;2023-04-25T14:40:31;5.8;;;2.21;;
50651;SDS011;66928;52.086;5.240;2023-04-25T14:42:07;7.0;;;2.1;;
50651;SDS011;66928;52.086;5.240;2023-04-25T14:43:43;6.8;;;2.31;;
50651;SDS011;66928;52.086;5.240;2023-04-25T14:46:55;6.1;;;2.31;;
50651;SDS011;66928;52.086;5.240;2023-04-25T14:48:32;7.0;;;2.6;;
50651;SDS011;66928;52.086;5.240;2023-04-25T14:50:08;6.6;;;2.4;;
50651;SDS011;66928;52.086;5.240;2023-04-25T14:51:45;7.6;;;2.31;;
50651;SDS011;66928;52.086;5.240;2023-04-25T14:54:57;7.8;;;2.31;;
50651;SDS011;66928;52.086;5.240;2023-04-25T14:56:33;5.9;;;2.31;;
50651;SDS011;66928;52.086;5.240;2023-04-25T14:58:09;6.8;;;2.31;;
50651;SDS011;66928;52.086;5.240;2023-04-25T15:01:22;4.7;;;1.8;;
50651;SDS011;66928;52.086;5.240;2023-04-25T15:02:58;6.0;;;1.9;;
50651;SDS011;66928;52.086;5.240;2023-04-25T15:04:35;4.3;;;1.9;;
50651;SDS011;66928;52.086;5.240;2023-04-25T15:07:47;3.4;;;1.7;;
50651;SDS011;66928;52.086;5.240;2023-04-25T15:09:23;4.3;;;1.8;;
50651;SDS011;66928;52.086;5.240;2023-04-25T15:10:59;4.8;;;1.7;;
50651;SDS011;66928;52.086;5.240;2023-04-25T15:12:35;4.3;;;1.9;;
50651;SDS011;66928;52.086;5.240;2023-04-25T15:15:48;4.1;;;1.8;;
50651;SDS011;66928;52.086;5.240;2023-04-25T15:17:24;4.61;;;1.9;;
50651;SDS011;66928;52.086;5.240;2023-04-25T15:19:00;6.1;;;2.7;;
50651;SDS011;66928;52.086;5.240;2023-04-25T15:22:12;6.9;;;1.9;;
50651;SDS011;66928;52.086;5.240;2023-04-25T15:23:48;4.7;;;1.8;;
50651;SDS011;66928;52.086;5.240;2023-04-25T15:25:25;8.0;;;2.4;;
50651;SDS011;66928;52.086;5.240;2023-04-25T15:28:38;4.7;;;2.1;;
50651;SDS011;66928;52.086;5.240;2023-04-25T15:30:14;3.3;;;1.8;;
50651;SDS011;66928;52.086;5.240;2023-04-25T15:31:52;6.0;;;2.0;;
50651;SDS011;66928;52.086;5.240;2023-04-25T15:33:28;4.8;;;1.8;;
50651;SDS011;66928;52.086;5.240;2023-04-25T15:36:42;5.5;;;2.0;;
50651;SDS011;66928;52.086;5.240;2023-04-25T15:38:19;4.41;;;1.9;;
50651;SDS011;66928;52.086;5.240;2023-04-25T15:40:00;4.5;;;2.0;;
50651;SDS011;66928;52.086;5.240;2023-04-25T15:43:14;4.0;;;1.9;;
50651;SDS011;66928;52.086;5.240;2023-04-25T15:44:50;4.41;;;2.1;;
50651;SDS011;66928;52.086;5.240;2023-04-25T15:46:26;3.2;;;1.7;;
50651;SDS011;66928;52.086;5.240;2023-04-25T15:49:38;4.1;;;1.9;;
50651;SDS011;66928;52.086;5.240;2023-04-25T15:51:14;3.4;;;1.8;;
50651;SDS011;66928;52.086;5.240;2023-04-25T15:52:51;5.11;;;1.7;;
50651;SDS011;66928;52.086;5.240;2023-04-25T15:54:27;5.5;;;2.0;;
50651;SDS011;66928;52.086;5.240;2023-04-25T15:57:39;7.6;;;1.9;;
50651;SDS011;66928;52.086;5.240;2023-04-25T15:59:15;6.0;;;2.21;;
50651;SDS011;66928;52.086;5.240;2023-04-25T16:00:51;5.2;;;1.9;;
50651;SDS011;66928;52.086;5.240;2023-04-25T16:04:04;5.5;;;1.9;;
50651;SDS011;66928;52.086;5.240;2023-04-25T16:05:40;5.2;;;2.1;;
50651;SDS011;66928;52.086;5.240;2023-04-25T16:07:16;5.0;;;2.1;;
50651;SDS011;66928;52.086;5.240;2023-04-25T16:10:28;4.91;;;2.21;;
50651;SDS011;66928;52.086;5.240;2023-04-25T16:12:05;9.6;;;2.6;;
50651;SDS011;66928;52.086;5.240;2023-04-25T16:13:41;6.0;;;3.0;;
50651;SDS011;66928;52.086;5.240;2023-04-25T16:16:54;6.3;;;2.21;;
50651;SDS011;66928;52.086;5.240;2023-04-25T16:18:30;8.0;;;2.21;;
50651;SDS011;66928;52.086;5.240;2023-04-25T16:20:06;5.9;;;2.21;;
50651;SDS011;66928;52.086;5.240;2023-04-25T16:21:44;7.1;;;2.1;;
50651;SDS011;66928;52.086;5.240;2023-04-25T16:24:56;5.4;;;2.4;;
50651;SDS011;66928;52.086;5.240;2023-04-25T16:26:32;6.9;;;2.4;;
50651;SDS011;66928;52.086;5.240;2023-04-25T16:28:10;4.7;;;2.1;;
50651;SDS011;66928;52.086;5.240;2023-04-25T16:31:22;5.8;;;2.5;;
50651;SDS011;66928;52.086;5.240;2023-04-25T16:32:58;8.5;;;2.4;;
50651;SDS011;66928;52.086;5.240;2023-04-25T16:34:34;4.5;;;2.21;;
50651;SDS011;66928;52.086;5.240;2023-04-25T16:37:46;5.6;;;2.0;;
50651;SDS011;66928;52.086;5.240;2023-04-25T16:39:23;6.6;;;2.21;;
50651;SDS011;66928;52.086;5.240;2023-04-25T16:40:59;5.0;;;2.31;;
50651;SDS011;66928;52.086;5.240;2023-04-25T16:42:35;6.2;;;3.0;;
50651;SDS011;66928;52.086;5.240;2023-04-25T16:45:47;5.5;;;2.31;;
50651;SDS011;66928;52.086;5.240;2023-04-25T16:47:23;5.5;;;2.31;;
50651;SDS011;66928;52.086;5.240;2023-04-25T16:48:59;4.7;;;2.31;;
50651;SDS011;66928;52.086;5.240;2023-04-25T16:52:12;4.91;;;2.0;;
50651;SDS011;66928;52.086;5.240;2023-04-25T16:53:47;6.0;;;2.21;;
50651;SDS011;66928;52.086;5.240;2023-04-25T16:55:23;6.3;;;2.31;;
50651;SDS011;66928;52.086;5.240;2023-04-25T16:58:35;7.2;;;2.21;;
50651;SDS011;66928;52.086;5.240;2023-04-25T17:00:12;7.0;;;2.7;;
50651;SDS011;66928;52.086;5.240;2023-04-25T17:01:49;7.3;;;2.8;;
50651;SDS011;66928;52.086;5.240;2023-04-25T17:03:26;7.0;;;2.7;;
50651;SDS011;66928;52.086;5.240;2023-04-25T17:06:38;6.1;;;2.21;;
50651;SDS011;66928;52.086;5.240;2023-04-25T17:08:14;7.4;;;2.1;;
50651;SDS011;66928;52.086;5.240;2023-04-25T17:09:50;6.3;;;2.1;;
50651;SDS011;66928;52.086;5.240;2023-04-25T17:13:02;4.61;;;2.1;;
50651;SDS011;66928;52.086;5.240;2023-04-25T17:14:38;5.6;;;2.31;;
50651;SDS011;66928;52.086;5.240;2023-04-25T17:16:17;6.9;;;2.21;;
50651;SDS011;66928;52.086;5.240;2023-04-25T17:19:30;5.8;;;2.21;;
50651;SDS011;66928;52.086;5.240;2023-04-25T17:21:06;5.9;;;2.21;;
50651;SDS011;66928;52.086;5.240;2023-04-25T17:22:42;4.61;;;2.21;;
50651;SDS011;66928;52.086;5.240;2023-04-25T17:25:55;5.9;;;2.5;;
50651;SDS011;66928;52.086;5.240;2023-04-25T17:27:32;6.8;;;2.5;;
50651;SDS011;66928;52.086;5.240;2023-04-25T17:29:09;7.9;;;2.4;;
50651;SDS011;66928;52.086;5.240;2023-04-25T17:30:45;5.0;;;2.5;;
50651;SDS011;66928;52.086;5.240;2023-04-25T17:33:58;7.1;;;2.7;;
50651;SDS011;66928;52.086;5.240;2023-04-25T17:35:34;7.0;;;2.5;;
50651;SDS011;66928;52.086;5.240;2023-04-25T17:37:10;7.8;;;2.5;;
50651;SDS011;66928;52.086;5.240;2023-04-25T17:40:22;6.2;;;2.4;;
50651;SDS011;66928;52.086;5.240;2023-04-25T17:41:58;8.0;;;2.7;;
50651;SDS011;66928;52.086;5.240;2023-04-25T17:43:34;5.3;;;2.4;;
50651;SDS011;66928;52.086;5.240;2023-04-25T17:46:47;8.0;;;2.7;;
50651;SDS011;66928;52.086;5.240;2023-04-25T17:48:23;7.6;;;2.6;;
50651;SDS011;66928;52.086;5.240;2023-04-25T17:50:00;7.2;;;2.6;;
50651;SDS011;66928;52.086;5.240;2023-04-25T17:51:36;7.0;;;2.31;;
50651;SDS011;66928;52.086;5.240;2023-04-25T17:54:48;5.7;;;2.4;;
50651;SDS011;66928;52.086;5.240;2023-04-25T17:56:24;5.9;;;2.4;;
50651;SDS011;66928;52.086;5.240;2023-04-25T17:58:00;6.7;;;2.4;;
50651;SDS011;66928;52.086;5.240;2023-04-25T18:01:13;5.9;;;2.21;;
50651;SDS011;66928;52.086;5.240;2023-04-25T18:02:49;5.5;;;2.21;;
50651;SDS011;66928;52.086;5.240;2023-04-25T18:04:25;5.8;;;2.4;;
50651;SDS011;66928;52.086;5.240;2023-04-25T18:07:37;5.8;;;2.5;;